createdAt,value
2019-06-10T00:01:21.397Z,12.70
2019-06-10T00:03:51.857Z,12.60
2019-06-10T00:06:21.091Z,12.50
2019-06-10T00:08:50.720Z,12.50
2019-06-10T00:11:21.258Z,12.40
2019-06-10T00:13:50.798Z,12.40
2019-06-10T00:16:20.952Z,12.30
2019-06-10T00:18:51.168Z,12.30
2019-06-10T00:21:21.731Z,12.30
2019-06-10T00:23:51.790Z,12.30
2019-06-10T00:26:21.615Z,12.30
2019-06-10T00:28:51.558Z,12.30
2019-06-10T00:31:21.338Z,12.30
2019-06-10T00:33:51.975Z,12.30
2019-06-10T00:36:21.642Z,12.30
2019-06-10T00:38:51.907Z,12.40
2019-06-10T00:41:21.960Z,12.40
2019-06-10T00:43:51.692Z,12.40
2019-06-10T00:46:21.398Z,12.40
2019-06-10T00:48:51.159Z,12.50
2019-06-10T00:51:21.105Z,12.60
2019-06-10T00:53:51.416Z,12.50
2019-06-10T00:56:21.561Z,12.60
2019-06-10T00:58:51.383Z,12.60
2019-06-10T01:01:21.990Z,12.60
2019-06-10T01:03:51.631Z,12.70
2019-06-10T01:06:21.401Z,12.70
2019-06-10T01:08:51.350Z,12.90
2019-06-10T01:11:26.652Z,13.00
2019-06-10T01:13:51.471Z,13.20
2019-06-10T01:16:21.694Z,13.20
2019-06-10T01:18:53.565Z,13.20
2019-06-10T01:21:22.820Z,13.00
2019-06-10T01:23:51.916Z,12.90
2019-06-10T01:26:21.814Z,12.70
2019-06-10T01:28:51.608Z,12.70
2019-06-10T01:31:24.079Z,12.70
2019-06-10T01:33:51.883Z,12.70
2019-06-10T01:36:21.513Z,12.70
2019-06-10T01:38:51.422Z,12.70
2019-06-10T01:41:21.472Z,12.70
2019-06-10T01:43:51.450Z,12.60
2019-06-10T01:46:21.320Z,12.60
2019-06-10T01:48:52.185Z,12.60
2019-06-10T01:51:21.573Z,12.60
2019-06-10T01:53:51.604Z,12.60
2019-06-10T01:56:21.553Z,12.60
2019-06-10T01:58:51.332Z,12.60
2019-06-10T02:01:33.445Z,12.60
2019-06-10T02:04:02.546Z,12.60
2019-06-10T02:06:31.807Z,12.60
2019-06-10T02:09:07.165Z,12.60
2019-06-10T02:11:36.885Z,12.60
2019-06-10T02:14:06.842Z,12.60
2019-06-10T02:16:36.047Z,12.60
2019-06-10T02:19:05.428Z,12.60
2019-06-10T02:21:34.305Z,12.70
2019-06-10T02:24:03.106Z,12.70
2019-06-10T02:26:32.667Z,12.80
2019-06-10T02:29:02.196Z,12.80
2019-06-10T02:31:37.541Z,12.80
2019-06-10T02:34:02.843Z,12.80
2019-06-10T02:36:36.609Z,12.80
2019-06-10T02:39:04.667Z,12.80
2019-06-10T02:41:36.354Z,12.80
2019-06-10T02:44:04.680Z,12.80
2019-06-10T02:46:36.402Z,12.80
2019-06-10T02:49:21.431Z,12.80
2019-06-10T02:51:36.121Z,12.90
2019-06-10T02:54:05.868Z,12.80
2019-06-10T02:56:36.879Z,12.80
2019-06-10T02:59:06.345Z,12.80
2019-06-10T03:01:38.185Z,12.80
2019-06-10T03:04:06.363Z,12.80
2019-06-10T03:06:39.789Z,12.80
2019-06-10T03:09:07.436Z,12.80
2019-06-10T03:11:37.706Z,12.80
2019-06-10T03:14:06.974Z,12.80
2019-06-10T03:16:44.266Z,12.80
2019-06-10T03:19:13.630Z,12.80
2019-06-10T03:21:43.023Z,12.80
2019-06-10T03:24:13.108Z,12.80
2019-06-10T03:26:42.798Z,12.80
2019-06-10T03:29:12.893Z,12.70
2019-06-10T03:31:47.660Z,12.70
2019-06-10T03:34:14.753Z,12.70
2019-06-10T03:36:44.743Z,12.70
2019-06-10T03:39:14.618Z,12.70
2019-06-10T03:41:43.622Z,12.70
2019-06-10T03:44:13.113Z,12.70
2019-06-10T03:46:43.089Z,12.70
2019-06-10T03:49:12.859Z,12.70
2019-06-10T03:51:42.872Z,12.60
2019-06-10T03:54:13.275Z,12.60
2019-06-10T03:56:42.995Z,12.60
2019-06-10T03:59:12.710Z,12.60
2019-06-10T04:01:42.636Z,12.60
2019-06-10T04:04:13.011Z,12.60
2019-06-10T04:06:44.320Z,12.60
2019-06-10T04:09:13.358Z,12.60
2019-06-10T04:11:43.311Z,12.60
2019-06-10T04:14:12.988Z,12.60
2019-06-10T04:16:43.259Z,12.70
2019-06-10T04:19:13.136Z,12.70
2019-06-10T04:21:43.386Z,12.70
2019-06-10T04:24:13.042Z,12.70
2019-06-10T04:26:43.555Z,12.70
2019-06-10T04:29:13.180Z,12.70
2019-06-10T04:31:42.495Z,12.70
2019-06-10T04:34:12.572Z,12.70
2019-06-10T04:36:42.386Z,12.80
2019-06-10T04:39:12.516Z,12.90
2019-06-10T04:41:42.759Z,13.10
2019-06-10T04:44:13.174Z,13.20
2019-06-10T04:46:42.982Z,13.30
2019-06-10T04:49:13.189Z,13.30
2019-06-10T04:51:43.490Z,13.50
2019-06-10T04:54:13.327Z,13.50
2019-06-10T04:56:43.391Z,13.60
2019-06-10T04:59:13.331Z,13.70
2019-06-10T05:01:42.869Z,13.70
2019-06-10T05:04:12.709Z,13.60
2019-06-10T05:06:42.503Z,13.50
2019-06-10T05:09:12.568Z,13.50
2019-06-10T05:11:43.053Z,13.50
2019-06-10T05:14:13.405Z,13.60
2019-06-10T05:16:43.391Z,13.60
2019-06-10T05:19:13.015Z,13.60
2019-06-10T05:21:42.521Z,13.70
2019-06-10T05:24:12.541Z,13.70
2019-06-10T05:26:42.516Z,13.60
2019-06-10T05:29:12.328Z,13.60
2019-06-10T05:31:43.553Z,13.70
2019-06-10T05:34:13.026Z,13.70
2019-06-10T05:36:43.540Z,13.70
2019-06-10T05:39:13.131Z,13.80
2019-06-10T05:41:43.306Z,13.80
2019-06-10T05:44:13.509Z,13.80
2019-06-10T05:46:43.643Z,13.90
2019-06-10T05:49:12.740Z,14.00
2019-06-10T05:51:42.514Z,14.10
2019-06-10T05:54:12.775Z,14.20
2019-06-10T05:56:43.239Z,14.20
2019-06-10T05:59:12.692Z,14.40
2019-06-10T06:01:43.120Z,14.40
2019-06-10T06:04:12.939Z,14.60
2019-06-10T06:06:44.955Z,14.80
2019-06-10T06:09:13.060Z,15.00
2019-06-10T06:11:43.142Z,15.20
2019-06-10T06:14:13.389Z,15.20
2019-06-10T06:16:43.400Z,15.30
2019-06-10T06:19:13.187Z,15.60
2019-06-10T06:21:47.573Z,15.50
2019-06-10T06:24:14.058Z,15.50
2019-06-10T06:26:43.449Z,15.50
2019-06-10T06:29:13.121Z,15.60
2019-06-10T06:31:43.130Z,15.60
2019-06-10T06:34:13.839Z,15.60
2019-06-10T06:36:43.491Z,15.40
2019-06-10T06:39:12.988Z,15.30
2019-06-10T06:41:42.957Z,15.70
2019-06-10T06:44:12.999Z,16.70
2019-06-10T06:46:43.073Z,17.50
2019-06-10T06:49:12.886Z,18.10
2019-06-10T06:51:53.058Z,18.20
2019-06-10T06:54:13.078Z,18.10
2019-06-10T06:56:43.722Z,18.80
2019-06-10T06:59:13.668Z,18.60
2019-06-10T07:01:44.228Z,18.50
2019-06-10T07:04:13.731Z,18.90
2019-06-10T07:06:43.506Z,18.70
2019-06-10T07:09:13.624Z,18.20
2019-06-10T07:11:45.089Z,17.90
2019-06-10T07:14:15.439Z,18.10
2019-06-10T07:16:46.516Z,18.10
2019-06-10T07:19:16.018Z,18.30
2019-06-10T07:22:07.468Z,18.60
2019-06-10T07:24:16.563Z,19.10
2019-06-10T07:26:52.197Z,19.40
2019-06-10T07:29:16.488Z,19.60
2019-06-10T07:31:49.974Z,19.70
2019-06-10T07:34:16.895Z,19.90
2019-06-10T07:36:46.071Z,20.10
2019-06-10T07:39:15.740Z,20.10
2019-06-10T07:41:47.958Z,20.00
2019-06-10T07:44:16.413Z,19.80
2019-06-10T07:46:45.788Z,19.50
2019-06-10T07:49:15.416Z,19.50
2019-06-10T07:51:46.407Z,19.40
2019-06-10T07:54:15.746Z,19.50
2019-06-10T07:56:50.430Z,19.30
2019-06-10T07:59:16.146Z,19.20
2019-06-10T08:01:51.379Z,19.00
2019-06-10T08:04:16.659Z,18.70
2019-06-10T08:06:49.167Z,18.50
2019-06-10T08:09:17.135Z,18.40
2019-06-10T08:11:48.776Z,18.30
2019-06-10T08:14:18.111Z,18.20
2019-06-10T08:16:48.648Z,18.30
2019-06-10T08:19:31.698Z,18.40
2019-06-10T08:21:49.711Z,18.50
2019-06-10T08:24:18.655Z,18.70
2019-06-10T08:26:48.171Z,18.70
2019-06-10T08:29:17.126Z,18.50
2019-06-10T08:31:49.396Z,18.20
2019-06-10T08:34:17.788Z,18.20
2019-06-10T08:36:50.568Z,18.10
2019-06-10T08:39:17.927Z,18.20
2019-06-10T08:41:49.205Z,18.30
2019-06-10T08:44:18.736Z,18.60
2019-06-10T08:46:48.701Z,19.00
2019-06-10T08:49:18.181Z,20.20
2019-06-10T08:51:50.029Z,21.20
2019-06-10T08:54:18.810Z,21.90
2019-06-10T08:56:50.728Z,21.90
2019-06-10T08:59:19.273Z,21.10
2019-06-10T09:01:52.856Z,21.60
2019-06-10T09:04:19.452Z,21.00
2019-06-10T09:06:50.842Z,20.50
2019-06-10T09:09:22.465Z,20.50
2019-06-10T09:11:53.882Z,20.00
2019-06-10T09:14:23.448Z,20.30
2019-06-10T09:16:54.387Z,20.80
2019-06-10T09:19:23.495Z,20.90
2019-06-10T09:21:56.238Z,21.50
2019-06-10T09:24:23.539Z,21.20
2019-06-10T09:26:54.941Z,21.80
2019-06-10T09:29:24.278Z,21.40
2019-06-10T09:31:55.877Z,20.90
2019-06-10T09:34:24.635Z,21.40
2019-06-10T09:36:56.943Z,21.90
2019-06-10T09:39:25.484Z,22.10
2019-06-10T09:42:02.243Z,21.80
2019-06-10T09:44:25.714Z,21.90
2019-06-10T09:47:00.146Z,21.70
2019-06-10T09:49:28.522Z,21.50
2019-06-10T09:51:58.029Z,21.50
2019-06-10T09:54:27.197Z,21.50
2019-06-10T09:56:56.406Z,21.40
2019-06-10T09:59:25.451Z,21.50
2019-06-10T10:02:00.016Z,21.60
2019-06-10T10:04:25.573Z,21.50
2019-06-10T10:06:57.484Z,21.50
2019-06-10T10:09:26.314Z,21.80
2019-06-10T10:11:56.199Z,22.60
2019-06-10T10:14:26.321Z,23.20
2019-06-10T10:17:00.100Z,23.80
2019-06-10T10:19:26.690Z,23.80
2019-06-10T10:21:58.408Z,23.90
2019-06-10T10:24:27.171Z,23.80
2019-06-10T10:26:58.643Z,23.80
2019-06-10T10:29:26.584Z,23.40
2019-06-10T10:31:55.859Z,23.30
2019-06-10T10:34:25.487Z,23.20
2019-06-10T10:36:57.239Z,22.70
2019-06-10T10:39:25.521Z,22.40
2019-06-10T10:41:57.067Z,22.60
2019-06-10T10:44:25.444Z,22.20
2019-06-10T10:46:55.892Z,22.10
2019-06-10T10:49:26.087Z,21.70
2019-06-10T10:51:55.359Z,21.30
2019-06-10T10:54:33.055Z,20.90
2019-06-10T10:56:58.902Z,21.10
2019-06-10T10:59:25.786Z,21.10
2019-06-10T11:01:55.594Z,21.20
2019-06-10T11:04:24.815Z,21.20
2019-06-10T11:06:56.804Z,21.50
2019-06-10T11:09:26.226Z,21.30
2019-06-10T11:11:59.435Z,21.20
2019-06-10T11:14:29.260Z,20.90
2019-06-10T11:16:59.014Z,20.90
2019-06-10T11:19:28.451Z,20.80
2019-06-10T11:21:57.928Z,20.70
2019-06-10T11:24:36.665Z,20.50
2019-06-10T11:26:58.614Z,20.50
2019-06-10T11:29:27.519Z,20.60
2019-06-10T11:31:58.525Z,20.70
2019-06-10T11:34:27.811Z,20.80
2019-06-10T11:36:58.349Z,20.70
2019-06-10T11:39:27.507Z,20.50
2019-06-10T11:41:57.699Z,20.40
2019-06-10T11:44:27.050Z,20.20
2019-06-10T11:46:58.166Z,20.10
2019-06-10T11:49:27.397Z,20.00
2019-06-10T11:51:57.909Z,19.90
2019-06-10T11:54:28.036Z,20.10
2019-06-10T11:56:58.629Z,20.10
2019-06-10T11:59:28.419Z,20.20
2019-06-10T12:02:01.665Z,20.30
2019-06-10T12:04:28.215Z,20.10
2019-06-10T12:06:57.189Z,20.20
2019-06-10T12:09:26.926Z,20.20
2019-06-10T12:12:01.276Z,20.60
2019-06-10T12:14:27.547Z,20.70
2019-06-10T12:17:29.115Z,20.80
2019-06-10T12:19:28.452Z,20.80
2019-06-10T12:22:02.423Z,20.60
2019-06-10T12:24:32.780Z,20.40
2019-06-10T12:27:04.765Z,20.20
2019-06-10T12:29:31.232Z,20.00
2019-06-10T12:32:06.483Z,19.80
2019-06-10T12:34:33.266Z,19.60
2019-06-10T12:37:10.642Z,19.30
2019-06-10T12:39:33.834Z,19.20
2019-06-10T12:42:06.129Z,18.90
2019-06-10T12:44:34.190Z,18.70
2019-06-10T12:47:06.344Z,18.60
2019-06-10T12:49:34.098Z,18.40
2019-06-10T12:52:07.213Z,18.20
2019-06-10T12:54:34.662Z,18.10
2019-06-10T12:57:05.263Z,17.90
2019-06-10T12:59:35.154Z,17.80
2019-06-10T13:02:16.803Z,17.60
2019-06-10T13:04:35.850Z,17.60
2019-06-10T13:07:06.871Z,17.50
2019-06-10T13:09:37.299Z,17.40
2019-06-10T13:12:06.473Z,17.40
2019-06-10T13:14:35.554Z,17.40
2019-06-10T13:17:05.801Z,17.30
2019-06-10T13:19:35.171Z,17.30
2019-06-10T13:22:06.075Z,17.30
2019-06-10T13:24:34.775Z,17.40
2019-06-10T13:27:06.541Z,17.40
2019-06-10T13:29:34.667Z,17.40
2019-06-10T13:32:06.119Z,17.30
2019-06-10T13:34:34.675Z,17.30
2019-06-10T13:37:06.801Z,17.30
2019-06-10T13:39:35.054Z,17.10
2019-06-10T13:42:06.859Z,17.00
2019-06-10T13:44:35.201Z,16.80
2019-06-10T13:47:08.166Z,16.90
2019-06-10T13:49:35.164Z,16.90
2019-06-10T13:52:08.904Z,17.00
2019-06-10T13:54:35.699Z,17.20
2019-06-10T13:57:06.863Z,17.30
2019-06-10T13:59:35.413Z,17.40
2019-06-10T14:02:06.907Z,17.50
2019-06-10T14:04:35.781Z,17.50
2019-06-10T14:07:08.343Z,17.60
2019-06-10T14:09:36.040Z,17.50
2019-06-10T14:12:05.911Z,17.50
2019-06-10T14:14:34.984Z,17.60
2019-06-10T14:17:05.241Z,17.40
2019-06-10T14:19:34.359Z,17.50
2019-06-10T14:22:05.851Z,17.60
2019-06-10T14:24:34.082Z,17.40
2019-06-10T14:27:06.457Z,17.50
2019-06-10T14:29:34.368Z,17.50
2019-06-10T14:32:04.411Z,17.50
2019-06-10T14:34:35.764Z,17.40
2019-06-10T14:37:05.836Z,17.30
2019-06-10T14:39:35.401Z,17.10
2019-06-10T14:42:05.645Z,17.10
2019-06-10T14:44:35.380Z,17.10
2019-06-10T14:47:04.550Z,17.10
2019-06-10T14:49:33.723Z,17.10
2019-06-10T14:52:03.375Z,17.20
2019-06-10T14:54:32.745Z,17.30
2019-06-10T14:57:02.663Z,17.60
2019-06-10T14:59:31.786Z,18.00
2019-06-10T15:02:02.837Z,18.00
2019-06-10T15:04:33.215Z,18.30
2019-06-10T15:07:03.821Z,18.50
2019-06-10T15:09:33.558Z,18.60
2019-06-10T15:12:03.124Z,18.80
2019-06-10T15:14:32.410Z,19.00
2019-06-10T15:17:02.790Z,19.00
2019-06-10T15:19:33.288Z,19.00
2019-06-10T15:22:03.139Z,19.00
2019-06-10T15:24:33.451Z,19.00
2019-06-10T15:27:13.109Z,19.00
2019-06-10T15:29:33.583Z,18.70
2019-06-10T15:32:13.426Z,18.50
2019-06-10T15:34:34.038Z,18.30
2019-06-10T15:37:03.392Z,18.00
2019-06-10T15:39:33.458Z,17.80
2019-06-10T15:42:03.160Z,17.60
2019-06-10T15:44:48.528Z,17.60
2019-06-10T15:47:04.115Z,17.50
2019-06-10T15:49:32.956Z,17.50
2019-06-10T15:52:03.334Z,17.50
2019-06-10T15:54:33.330Z,17.60
2019-06-10T15:57:03.259Z,17.60
2019-06-10T15:59:33.101Z,17.60
2019-06-10T16:02:02.628Z,17.50
2019-06-10T16:04:35.108Z,17.50
2019-06-10T16:07:02.829Z,17.50
2019-06-10T16:09:32.879Z,17.50
2019-06-10T16:12:02.994Z,17.40
2019-06-10T16:14:33.207Z,17.30
2019-06-10T16:17:03.277Z,17.40
2019-06-10T16:19:33.006Z,17.30
2019-06-10T16:22:03.181Z,17.20
2019-06-10T16:24:33.421Z,17.30
2019-06-10T16:27:03.365Z,17.30
2019-06-10T16:29:33.481Z,17.30
2019-06-10T16:32:03.118Z,17.40
2019-06-10T16:34:33.783Z,17.40
2019-06-10T16:37:02.607Z,17.40
2019-06-10T16:39:32.585Z,17.40
2019-06-10T16:42:03.034Z,17.40
2019-06-10T16:44:33.069Z,17.30
2019-06-10T16:47:03.228Z,17.30
2019-06-10T16:49:32.979Z,17.30
2019-06-10T16:52:03.037Z,17.30
2019-06-10T16:54:32.963Z,17.30
2019-06-10T16:57:03.861Z,17.20
2019-06-10T16:59:33.450Z,17.20
2019-06-10T17:02:02.540Z,17.20
2019-06-10T17:04:33.166Z,17.20
2019-06-10T17:07:02.585Z,17.10
2019-06-10T17:09:32.961Z,17.10
2019-06-10T17:12:02.391Z,17.10
2019-06-10T17:14:33.565Z,17.10
2019-06-10T17:17:03.537Z,17.10
2019-06-10T17:19:33.512Z,17.00
2019-06-10T17:22:02.489Z,16.90
2019-06-10T17:24:33.908Z,16.90
2019-06-10T17:27:03.287Z,16.90
2019-06-10T17:29:33.430Z,16.80
2019-06-10T17:32:02.994Z,16.70
2019-06-10T17:34:33.912Z,16.60
2019-06-10T17:37:03.779Z,16.50
2019-06-10T17:39:34.546Z,16.50
2019-06-10T17:42:03.467Z,16.50
2019-06-10T17:44:32.639Z,16.40
2019-06-10T17:47:02.343Z,16.40
2019-06-10T17:49:34.437Z,16.40
2019-06-10T17:52:02.952Z,16.40
2019-06-10T17:54:32.477Z,16.30
2019-06-10T17:57:02.517Z,16.30
2019-06-10T17:59:34.078Z,16.30
2019-06-10T18:02:03.140Z,16.20
2019-06-10T18:04:33.578Z,16.20
2019-06-10T18:07:03.243Z,16.20
2019-06-10T18:09:35.427Z,16.10
2019-06-10T18:12:03.933Z,16.10
2019-06-10T18:14:34.593Z,16.20
2019-06-10T18:17:04.079Z,16.20
2019-06-10T18:19:35.748Z,16.30
2019-06-10T18:22:03.715Z,16.40
2019-06-10T18:24:33.307Z,16.50
2019-06-10T18:27:02.722Z,16.50
2019-06-10T18:29:33.636Z,16.50
2019-06-10T18:32:03.482Z,16.40
2019-06-10T18:34:36.267Z,16.40
2019-06-10T18:37:03.522Z,16.30
2019-06-10T18:39:33.591Z,16.30
2019-06-10T18:42:03.327Z,16.30
2019-06-10T18:44:35.607Z,16.30
2019-06-10T18:47:03.866Z,16.20
2019-06-10T18:49:35.798Z,16.20
2019-06-10T18:52:04.150Z,16.20
2019-06-10T18:54:35.623Z,16.00
2019-06-10T18:57:03.700Z,16.10
2019-06-10T18:59:35.077Z,16.00
2019-06-10T19:02:06.202Z,16.00
2019-06-10T19:04:36.482Z,15.90
2019-06-10T19:07:05.411Z,15.90
2019-06-10T19:09:38.804Z,15.90
2019-06-10T19:12:05.245Z,15.90
2019-06-10T19:14:35.564Z,15.90
2019-06-10T19:17:05.646Z,15.80
2019-06-10T19:19:36.069Z,15.80
2019-06-10T19:22:08.919Z,15.80
2019-06-10T19:24:36.782Z,15.80
2019-06-10T19:27:07.232Z,15.70
2019-06-10T19:29:44.903Z,15.70
2019-06-10T19:32:07.464Z,15.70
2019-06-10T19:34:37.477Z,15.60
2019-06-10T19:37:07.014Z,15.50
2019-06-10T19:39:43.504Z,15.50
2019-06-10T19:42:09.349Z,15.50
2019-06-10T19:44:38.814Z,15.50
2019-06-10T19:47:08.069Z,15.50
2019-06-10T19:49:38.626Z,15.60
2019-06-10T19:52:08.338Z,15.60
2019-06-10T19:54:39.013Z,15.60
2019-06-10T19:57:08.247Z,15.60
2019-06-10T19:59:51.161Z,15.50
2019-06-10T20:02:08.941Z,15.50
2019-06-10T20:04:38.320Z,15.40
2019-06-10T20:07:07.538Z,15.50
2019-06-10T20:09:36.421Z,15.50
2019-06-10T20:12:05.810Z,15.50
2019-06-10T20:14:34.694Z,15.50
2019-06-10T20:17:03.932Z,15.50
2019-06-10T20:19:32.745Z,15.50
2019-06-10T20:22:02.091Z,15.40
2019-06-10T20:24:31.134Z,15.40
2019-06-10T20:27:03.062Z,15.40
2019-06-10T20:29:32.905Z,15.40
2019-06-10T20:32:02.289Z,15.40
2019-06-10T20:34:31.754Z,15.30
2019-06-10T20:37:02.489Z,15.30
2019-06-10T20:39:32.991Z,15.30
2019-06-10T20:42:02.710Z,15.20
2019-06-10T20:44:32.586Z,15.20
2019-06-10T20:47:02.392Z,15.10
2019-06-10T20:49:32.606Z,15.10
2019-06-10T20:52:10.819Z,15.10
2019-06-10T20:54:33.239Z,15.10
2019-06-10T20:57:04.250Z,15.00
2019-06-10T20:59:33.339Z,14.90
2019-06-10T21:02:03.294Z,14.90
2019-06-10T21:04:32.587Z,14.90
2019-06-10T21:07:02.943Z,14.80
2019-06-10T21:09:33.574Z,14.70
2019-06-10T21:12:02.397Z,14.70
2019-06-10T21:14:33.138Z,14.70
2019-06-10T21:17:03.176Z,14.60
2019-06-10T21:19:33.104Z,14.60
2019-06-10T21:22:02.856Z,14.50
2019-06-10T21:24:32.475Z,14.50
2019-06-10T21:27:02.134Z,14.40
2019-06-10T21:29:32.280Z,14.40
2019-06-10T21:32:03.608Z,14.40
2019-06-10T21:34:32.764Z,14.40
2019-06-10T21:37:03.234Z,14.30
2019-06-10T21:39:32.550Z,14.30
2019-06-10T21:42:02.327Z,14.30
2019-06-10T21:44:32.020Z,14.30
2019-06-10T21:47:02.491Z,14.30
2019-06-10T21:49:32.239Z,14.20
2019-06-10T21:52:02.880Z,14.10
2019-06-10T21:54:33.043Z,14.10
2019-06-10T21:57:02.750Z,14.00
2019-06-10T21:59:32.208Z,14.00
2019-06-10T22:02:02.337Z,14.00
2019-06-10T22:04:32.623Z,14.00
2019-06-10T22:07:03.184Z,14.00
2019-06-10T22:09:32.650Z,13.90
2019-06-10T22:12:02.868Z,14.00
2019-06-10T22:14:32.997Z,14.00
2019-06-10T22:17:03.034Z,14.00
2019-06-10T22:19:32.425Z,14.00
2019-06-10T22:22:02.798Z,14.00
2019-06-10T22:24:32.327Z,14.00
2019-06-10T22:27:02.705Z,14.00
2019-06-10T22:29:32.248Z,14.00
2019-06-10T22:32:02.622Z,14.00
2019-06-10T22:34:32.926Z,13.90
2019-06-10T22:37:03.189Z,13.90
2019-06-10T22:39:32.807Z,13.90
2019-06-10T22:42:03.040Z,13.90
2019-06-10T22:44:33.128Z,13.80
2019-06-10T22:47:02.908Z,13.80
2019-06-10T22:49:32.892Z,13.80
2019-06-10T22:52:02.272Z,13.80
2019-06-10T22:54:32.295Z,13.70
2019-06-10T22:57:02.873Z,13.70
2019-06-10T22:59:32.194Z,13.70
2019-06-10T23:02:03.024Z,13.70
2019-06-10T23:04:33.266Z,13.80
2019-06-10T23:07:03.153Z,13.70
2019-06-10T23:09:32.188Z,13.80
2019-06-10T23:12:02.935Z,13.80
2019-06-10T23:14:33.272Z,13.80
2019-06-10T23:17:02.952Z,13.80
2019-06-10T23:19:33.178Z,13.80
2019-06-10T23:22:03.036Z,13.70
2019-06-10T23:24:32.978Z,13.80
2019-06-10T23:27:03.226Z,13.80
2019-06-10T23:29:33.038Z,13.80
2019-06-10T23:32:06.764Z,13.80
2019-06-10T23:34:33.767Z,13.80
2019-06-10T23:37:03.247Z,13.80
2019-06-10T23:39:33.448Z,13.70
2019-06-10T23:42:04.165Z,13.80
2019-06-10T23:44:33.535Z,13.80
2019-06-10T23:47:03.943Z,13.70
2019-06-10T23:49:33.274Z,13.70
2019-06-10T23:52:04.941Z,13.70
2019-06-10T23:54:33.326Z,13.60
2019-06-10T23:57:05.461Z,13.60
2019-06-10T23:59:33.488Z,13.60
